Time;durP1;ratioP1;P1;durP2;ratioP2;P2;SDS_P1;SDS_P2;PMS_P1;PMS_P2;Temp;Humidity;BMP_temperature;BMP_pressure;BME280_temperature;BME280_humidity;BME280_pressure;Samples;Min_cycle;Max_cycle;Signal;HPM_P1;HPM_P2
2022/10/14 00:01:51;;;;;;;69.82;37.97;;;;;;;;;;5050258;28;20701;-68
2022/10/14 00:04:17;;;;;;;74.00;37.47;;;;;;;;;;5035574;28;20214;-68
2022/10/14 00:06:42;;;;;;;78.50;38.22;;;;;;;;;;5038935;28;20564;-68
2022/10/14 00:09:08;;;;;;;77.40;39.03;;;;;;;;;;5048100;28;20324;-68
2022/10/14 00:11:35;;;;;;;75.93;37.10;;;;;;;;;;5044924;28;20486;-69
2022/10/14 00:14:05;;;;;;;68.13;35.78;;;;;;;;;;5035310;28;20220;-69
2022/10/14 00:16:34;;;;;;;65.93;35.10;;;;;;;;;;5048354;28;20174;-68
2022/10/14 00:19:00;;;;;;;66.60;33.33;;;;;;;;;;5037272;28;20181;-68
2022/10/14 00:21:27;;;;;;;63.28;33.72;;;;;;;;;;5039227;28;20182;-68
2022/10/14 00:23:53;;;;;;;65.53;33.97;;;;;;;;;;5046685;28;20700;-68
2022/10/14 00:26:25;;;;;;;62.08;32.22;;;;;;;;;;5035665;28;20573;-68
2022/10/14 00:28:50;;;;;;;64.38;32.13;;;;;;;;;;5035000;28;20182;-68
2022/10/14 00:31:16;;;;;;;63.03;31.75;;;;;;;;;;5037915;28;20313;-68
2022/10/14 00:33:42;;;;;;;67.05;33.13;;;;;;;;;;5047584;28;20178;-68
2022/10/14 00:36:11;;;;;;;65.03;32.78;;;;;;;;;;5043080;28;20227;-68
2022/10/14 00:38:36;;;;;;;66.47;32.45;;;;;;;;;;5040484;28;20662;-68
2022/10/14 00:41:02;;;;;;;65.00;32.63;;;;;;;;;;5044880;28;20192;-68
2022/10/14 00:43:28;;;;;;;62.40;29.70;;;;;;;;;;5037454;28;20517;-68
2022/10/14 00:45:54;;;;;;;54.90;28.90;;;;;;;;;;5040121;28;20614;-68
2022/10/14 00:48:23;;;;;;;53.28;27.48;;;;;;;;;;5042590;28;20181;-68
2022/10/14 00:50:53;;;;;;;58.63;28.95;;;;;;;;;;5049035;28;20480;-68
2022/10/14 00:53:19;;;;;;;55.75;27.38;;;;;;;;;;5043643;28;20280;-68
2022/10/14 00:55:45;;;;;;;55.97;27.65;;;;;;;;;;5039629;28;20182;-68
2022/10/14 00:58:10;;;;;;;50.65;26.83;;;;;;;;;;5036324;28;20188;-68
2022/10/14 01:00:36;;;;;;;47.97;25.27;;;;;;;;;;5038748;28;20185;-68
2022/10/14 01:03:09;;;;;;;50.85;25.25;;;;;;;;;;5036479;28;20185;-68
2022/10/14 01:05:50;;;;;;;46.33;24.90;;;;;;;;;;5035129;28;20202;-68
2022/10/14 01:08:29;;;;;;;45.58;24.45;;;;;;;;;;5030740;28;20194;-68
2022/10/14 01:11:08;;;;;;;43.75;23.23;;;;;;;;;;5036976;28;20186;-68
2022/10/14 01:13:44;;;;;;;45.10;24.00;;;;;;;;;;5035466;28;20263;-68
2022/10/14 01:16:42;;;;;;;51.10;23.90;;;;;;;;;;5036968;28;20248;-68
2022/10/14 01:19:16;;;;;;;47.20;23.88;;;;;;;;;;5038666;28;20181;-68
2022/10/14 01:21:54;;;;;;;45.08;22.80;;;;;;;;;;5045393;28;20185;-68
2022/10/14 01:24:54;;;;;;;38.17;20.65;;;;;;;;;;5048083;28;20654;-68
2022/10/14 01:27:25;;;;;;;44.05;21.23;;;;;;;;;;5044363;28;20680;-68
2022/10/14 01:30:11;;;;;;;39.42;21.50;;;;;;;;;;5037585;28;20186;-69
2022/10/14 01:32:42;;;;;;;41.63;22.00;;;;;;;;;;5033420;28;20233;-68
2022/10/14 01:35:38;;;;;;;37.10;20.80;;;;;;;;;;5031999;28;20197;-68
2022/10/14 01:38:11;;;;;;;37.80;20.42;;;;;;;;;;5039833;28;20194;-68
2022/10/14 01:40:42;;;;;;;39.95;20.73;;;;;;;;;;5031181;28;20201;-68
2022/10/14 01:43:10;;;;;;;42.97;21.90;;;;;;;;;;5045660;28;20252;-68
2022/10/14 01:45:39;;;;;;;40.30;20.45;;;;;;;;;;5041794;28;20201;-68
2022/10/14 01:48:05;;;;;;;39.33;21.50;;;;;;;;;;5035179;28;20193;-68
2022/10/14 01:50:34;;;;;;;34.83;20.60;;;;;;;;;;5037408;28;20174;-68
2022/10/14 01:53:05;;;;;;;42.88;21.20;;;;;;;;;;5038546;28;20220;-68
2022/10/14 01:55:36;;;;;;;34.92;19.17;;;;;;;;;;5048447;28;20200;-68
2022/10/14 01:58:02;;;;;;;32.90;18.13;;;;;;;;;;5044641;28;20462;-68
2022/10/14 02:00:27;;;;;;;31.80;18.48;;;;;;;;;;5038167;28;20261;-68
2022/10/14 02:02:53;;;;;;;33.15;19.15;;;;;;;;;;5038032;28;20272;-68
2022/10/14 02:05:25;;;;;;;37.15;20.25;;;;;;;;;;5036678;28;20229;-68
2022/10/14 02:07:57;;;;;;;37.83;19.48;;;;;;;;;;5038331;28;20591;-68
2022/10/14 02:10:25;;;;;;;38.38;20.15;;;;;;;;;;5045003;28;20268;-68
2022/10/14 02:13:04;;;;;;;35.50;19.92;;;;;;;;;;5039770;28;20672;-68
2022/10/14 02:15:40;;;;;;;35.65;20.88;;;;;;;;;;5034672;28;20170;-68
2022/10/14 02:18:21;;;;;;;33.78;20.45;;;;;;;;;;5031857;28;20188;-68
2022/10/14 02:20:54;;;;;;;36.55;20.48;;;;;;;;;;5044258;28;20377;-68
2022/10/14 02:23:25;;;;;;;35.55;20.08;;;;;;;;;;5031655;28;20265;-68
2022/10/14 02:25:52;;;;;;;34.90;19.88;;;;;;;;;;5041792;28;20201;-68
2022/10/14 02:28:22;;;;;;;36.42;20.13;;;;;;;;;;5033339;28;20252;-68
2022/10/14 02:31:00;;;;;;;34.30;19.98;;;;;;;;;;5034729;28;21046;-68
2022/10/14 02:33:32;;;;;;;36.67;19.77;;;;;;;;;;5040484;28;20205;-68
2022/10/14 02:35:59;;;;;;;33.58;18.80;;;;;;;;;;5034382;28;20586;-68
2022/10/14 02:38:25;;;;;;;38.45;18.75;;;;;;;;;;5036459;28;20185;-68
2022/10/14 02:40:51;;;;;;;32.95;18.50;;;;;;;;;;5043310;28;20269;-68
2022/10/14 02:43:18;;;;;;;32.30;18.05;;;;;;;;;;5040333;28;20592;-68
2022/10/14 02:45:43;;;;;;;28.45;17.58;;;;;;;;;;5044053;28;20209;-68
2022/10/14 02:48:10;;;;;;;34.92;19.08;;;;;;;;;;5030350;28;20578;-68
2022/10/14 02:50:35;;;;;;;29.10;17.77;;;;;;;;;;5029106;28;20528;-68
2022/10/14 02:53:01;;;;;;;31.88;19.33;;;;;;;;;;5032436;28;20184;-68
2022/10/14 02:55:26;;;;;;;34.25;18.90;;;;;;;;;;5046902;28;20182;-68
2022/10/14 02:57:51;;;;;;;32.58;18.58;;;;;;;;;;5029392;28;20182;-68
2022/10/14 03:00:17;;;;;;;28.50;17.38;;;;;;;;;;5036930;28;20270;-68
2022/10/14 03:02:43;;;;;;;33.03;18.42;;;;;;;;;;5041459;28;20193;-68
2022/10/14 03:05:08;;;;;;;29.65;16.63;;;;;;;;;;5043380;28;20251;-68
2022/10/14 03:07:33;;;;;;;28.77;17.40;;;;;;;;;;5037065;28;20193;-68
2022/10/14 03:09:59;;;;;;;27.70;17.17;;;;;;;;;;5032247;28;20629;-68
2022/10/14 03:12:25;;;;;;;27.30;16.35;;;;;;;;;;5042968;28;20185;-68
2022/10/14 03:14:50;;;;;;;29.38;17.08;;;;;;;;;;5030343;28;20273;-68
2022/10/14 03:17:16;;;;;;;31.45;17.27;;;;;;;;;;5039848;28;20265;-68
2022/10/14 03:19:41;;;;;;;30.77;17.13;;;;;;;;;;5036346;28;20532;-68
2022/10/14 03:22:06;;;;;;;28.65;17.27;;;;;;;;;;5041676;28;20223;-68
2022/10/14 03:24:32;;;;;;;26.48;16.42;;;;;;;;;;5040454;28;20192;-68
2022/10/14 03:26:57;;;;;;;27.70;17.15;;;;;;;;;;5030327;28;20224;-68
2022/10/14 03:29:23;;;;;;;32.53;17.98;;;;;;;;;;5034634;28;20185;-68
2022/10/14 03:31:48;;;;;;;30.20;18.33;;;;;;;;;;5034547;28;20275;-68
2022/10/14 03:34:13;;;;;;;34.00;18.08;;;;;;;;;;5035545;28;20652;-69
2022/10/14 03:36:38;;;;;;;28.95;17.95;;;;;;;;;;5043035;28;20231;-68
2022/10/14 03:39:04;;;;;;;30.45;17.95;;;;;;;;;;5040251;28;20236;-68
2022/10/14 03:41:29;;;;;;;28.60;18.35;;;;;;;;;;5040205;28;20254;-68
2022/10/14 03:43:55;;;;;;;28.27;17.35;;;;;;;;;;5032128;28;20186;-68
2022/10/14 03:46:20;;;;;;;30.27;17.40;;;;;;;;;;5033437;28;20206;-68
2022/10/14 03:48:45;;;;;;;33.45;19.40;;;;;;;;;;5030633;28;20197;-68
2022/10/14 03:51:11;;;;;;;30.17;18.30;;;;;;;;;;5032327;28;20182;-68
2022/10/14 03:53:36;;;;;;;35.83;19.35;;;;;;;;;;5035939;28;20261;-68
2022/10/14 03:56:02;;;;;;;32.50;19.70;;;;;;;;;;5031243;28;20646;-68
2022/10/14 03:58:28;;;;;;;32.85;19.77;;;;;;;;;;5040645;28;20186;-68
2022/10/14 04:00:53;;;;;;;30.55;18.77;;;;;;;;;;5032562;28;20188;-68
2022/10/14 04:03:18;;;;;;;32.05;19.20;;;;;;;;;;5036079;28;20622;-68
2022/10/14 04:05:44;;;;;;;36.65;20.88;;;;;;;;;;5033998;28;20213;-68
2022/10/14 04:08:09;;;;;;;37.28;20.00;;;;;;;;;;5036482;28;20234;-68
2022/10/14 04:10:34;;;;;;;34.45;21.00;;;;;;;;;;5037931;28;20189;-68
2022/10/14 04:13:00;;;;;;;33.72;20.58;;;;;;;;;;5028273;28;20708;-68
2022/10/14 04:15:26;;;;;;;38.60;20.15;;;;;;;;;;5027276;28;20186;-68
2022/10/14 04:17:52;;;;;;;35.88;20.55;;;;;;;;;;5031219;28;20689;-68
2022/10/14 04:20:17;;;;;;;40.75;21.80;;;;;;;;;;5035362;28;20217;-68
2022/10/14 04:22:43;;;;;;;40.95;23.17;;;;;;;;;;5032057;28;20193;-68
2022/10/14 04:25:08;;;;;;;40.55;22.30;;;;;;;;;;5027639;28;20193;-68
2022/10/14 04:27:34;;;;;;;40.90;22.45;;;;;;;;;;5039409;28;20189;-68
2022/10/14 04:29:59;;;;;;;42.15;22.05;;;;;;;;;;5044804;28;20268;-68
2022/10/14 04:32:25;;;;;;;39.80;22.15;;;;;;;;;;5032165;28;20226;-68
2022/10/14 04:34:50;;;;;;;40.95;22.65;;;;;;;;;;5037809;28;20261;-68
2022/10/14 04:37:16;;;;;;;39.40;21.90;;;;;;;;;;5028636;28;20197;-68
2022/10/14 04:39:41;;;;;;;43.88;23.05;;;;;;;;;;5034704;28;20190;-68
2022/10/14 04:42:06;;;;;;;42.28;22.67;;;;;;;;;;5040534;28;20622;-68
2022/10/14 04:44:32;;;;;;;42.58;21.83;;;;;;;;;;5041101;28;20583;-68
2022/10/14 04:46:57;;;;;;;41.28;22.23;;;;;;;;;;5033330;28;20213;-68
2022/10/14 04:49:23;;;;;;;42.35;22.15;;;;;;;;;;5042953;28;20187;-68
2022/10/14 04:51:48;;;;;;;46.95;23.58;;;;;;;;;;5035835;28;20190;-68
2022/10/14 04:54:14;;;;;;;44.88;23.13;;;;;;;;;;5039566;28;20637;-68
2022/10/14 04:56:39;;;;;;;48.20;23.90;;;;;;;;;;5037723;28;20205;-68
2022/10/14 04:59:05;;;;;;;49.17;23.02;;;;;;;;;;5032174;28;20945;-68
2022/10/14 05:01:30;;;;;;;47.85;23.95;;;;;;;;;;5033341;28;20265;-68
2022/10/14 05:03:56;;;;;;;46.67;21.90;;;;;;;;;;5030130;28;20269;-68
2022/10/14 05:06:21;;;;;;;51.10;23.98;;;;;;;;;;5035749;28;20202;-68
2022/10/14 05:08:46;;;;;;;49.95;23.80;;;;;;;;;;5034170;28;20186;-68
2022/10/14 05:11:12;;;;;;;50.25;24.45;;;;;;;;;;5032172;28;20273;-68
2022/10/14 05:13:37;;;;;;;54.67;24.80;;;;;;;;;;5030358;28;20596;-68
2022/10/14 05:16:03;;;;;;;44.95;20.17;;;;;;;;;;5036121;28;20229;-68
2022/10/14 05:18:29;;;;;;;52.15;23.55;;;;;;;;;;5029814;28;20268;-68
2022/10/14 05:20:57;;;;;;;55.17;25.15;;;;;;;;;;5030513;28;20504;-68
2022/10/14 05:23:22;;;;;;;56.70;24.50;;;;;;;;;;5031723;28;20190;-68
2022/10/14 05:25:48;;;;;;;62.33;26.25;;;;;;;;;;5033348;28;20267;-68
2022/10/14 05:28:13;;;;;;;56.13;25.23;;;;;;;;;;5031192;28;20553;-68
2022/10/14 05:30:40;;;;;;;64.65;26.55;;;;;;;;;;5037644;28;20761;-68
2022/10/14 05:33:06;;;;;;;59.42;26.17;;;;;;;;;;5036247;28;20288;-68
2022/10/14 05:35:31;;;;;;;64.05;27.27;;;;;;;;;;5036891;28;20269;-69
2022/10/14 05:37:56;;;;;;;63.78;27.90;;;;;;;;;;5036412;28;20189;-69
2022/10/14 05:40:23;;;;;;;70.93;28.92;;;;;;;;;;5035507;28;20227;-69
2022/10/14 05:42:49;;;;;;;65.72;28.58;;;;;;;;;;5030152;28;20661;-69
2022/10/14 05:45:15;;;;;;;74.57;28.75;;;;;;;;;;5028067;28;20212;-69
2022/10/14 05:47:43;;;;;;;69.10;28.52;;;;;;;;;;5033151;28;20210;-69
2022/10/14 05:50:08;;;;;;;66.75;27.20;;;;;;;;;;5027439;28;20186;-69
2022/10/14 05:52:34;;;;;;;56.65;24.20;;;;;;;;;;5039429;28;20185;-69
2022/10/14 05:55:00;;;;;;;72.90;28.98;;;;;;;;;;5037328;28;20650;-68
2022/10/14 05:57:26;;;;;;;74.05;29.83;;;;;;;;;;5036674;28;20268;-68
2022/10/14 05:59:52;;;;;;;66.45;28.25;;;;;;;;;;5033939;28;20178;-69
2022/10/14 06:02:17;;;;;;;76.68;30.95;;;;;;;;;;5034895;28;20179;-69
2022/10/14 06:04:42;;;;;;;76.30;30.27;;;;;;;;;;5043437;28;20181;-68
2022/10/14 06:07:09;;;;;;;72.85;30.13;;;;;;;;;;5042594;28;20221;-68
2022/10/14 06:09:35;;;;;;;81.53;30.98;;;;;;;;;;5043330;28;20181;-68
2022/10/14 06:12:00;;;;;;;85.47;32.92;;;;;;;;;;5030144;28;20678;-69
2022/10/14 06:14:26;;;;;;;86.90;32.90;;;;;;;;;;5033297;28;20190;-69
2022/10/14 06:16:51;;;;;;;90.53;33.25;;;;;;;;;;5032415;28;20178;-68
2022/10/14 06:19:16;;;;;;;85.95;34.05;;;;;;;;;;5034403;28;20197;-69
2022/10/14 06:21:43;;;;;;;88.60;33.60;;;;;;;;;;5037408;28;20213;-68
2022/10/14 06:24:08;;;;;;;86.85;32.92;;;;;;;;;;5029103;28;20182;-68
2022/10/14 06:26:34;;;;;;;90.28;32.70;;;;;;;;;;5028969;28;20202;-68
2022/10/14 06:28:59;;;;;;;101.45;36.10;;;;;;;;;;5032072;28;20181;-68
2022/10/14 06:31:25;;;;;;;96.40;36.10;;;;;;;;;;5032432;28;20237;-68
2022/10/14 06:33:50;;;;;;;96.15;35.28;;;;;;;;;;5036274;28;20269;-69
2022/10/14 06:36:16;;;;;;;95.55;35.83;;;;;;;;;;5029636;28;20192;-68
2022/10/14 06:38:41;;;;;;;98.82;36.22;;;;;;;;;;5027379;28;20216;-68
2022/10/14 06:41:06;;;;;;;113.30;38.22;;;;;;;;;;5031672;28;20270;-68
2022/10/14 06:43:34;;;;;;;104.82;38.03;;;;;;;;;;5028604;28;20240;-68
2022/10/14 06:45:59;;;;;;;106.57;37.55;;;;;;;;;;5029300;28;20205;-69
2022/10/14 06:48:25;;;;;;;108.97;38.50;;;;;;;;;;5027491;28;20269;-68
2022/10/14 06:50:51;;;;;;;109.82;38.70;;;;;;;;;;5028168;28;20562;-68
2022/10/14 06:53:17;;;;;;;114.85;39.08;;;;;;;;;;5027683;28;20232;-68
2022/10/14 06:55:42;;;;;;;111.75;38.17;;;;;;;;;;5030757;28;20190;-68
2022/10/14 06:58:07;;;;;;;115.00;41.42;;;;;;;;;;5031533;28;20174;-68
2022/10/14 07:00:33;;;;;;;124.50;40.35;;;;;;;;;;5034056;28;20185;-68
2022/10/14 07:02:58;;;;;;;121.25;41.72;;;;;;;;;;5030128;28;20182;-68
2022/10/14 07:05:24;;;;;;;121.97;41.30;;;;;;;;;;5034914;28;20216;-68
2022/10/14 07:07:49;;;;;;;128.05;42.05;;;;;;;;;;5034609;28;20190;-68
2022/10/14 07:10:15;;;;;;;117.05;40.78;;;;;;;;;;5039033;28;20213;-68
2022/10/14 07:12:40;;;;;;;131.45;42.15;;;;;;;;;;5031065;28;20186;-68
2022/10/14 07:15:06;;;;;;;120.78;40.63;;;;;;;;;;5030966;28;20199;-68
2022/10/14 07:17:32;;;;;;;120.22;39.80;;;;;;;;;;5030308;28;20268;-68
2022/10/14 07:19:57;;;;;;;125.75;39.90;;;;;;;;;;5029214;28;20674;-68
2022/10/14 07:22:22;;;;;;;115.15;39.65;;;;;;;;;;5040014;28;20189;-68
2022/10/14 07:24:48;;;;;;;108.72;39.58;;;;;;;;;;5030355;28;20265;-68
2022/10/14 07:27:14;;;;;;;99.68;36.55;;;;;;;;;;5031947;28;20255;-68
2022/10/14 07:29:40;;;;;;;96.85;35.20;;;;;;;;;;5033585;28;20194;-68
2022/10/14 07:32:06;;;;;;;93.72;33.70;;;;;;;;;;5031685;28;20250;-68
2022/10/14 07:34:33;;;;;;;101.82;35.47;;;;;;;;;;5030404;28;20260;-68
2022/10/14 07:36:58;;;;;;;89.85;35.03;;;;;;;;;;5032226;28;20217;-68
2022/10/14 07:39:24;;;;;;;97.65;34.70;;;;;;;;;;5034273;28;20220;-68
2022/10/14 07:41:50;;;;;;;100.90;37.10;;;;;;;;;;5033099;28;20217;-68
2022/10/14 07:44:16;;;;;;;84.97;31.63;;;;;;;;;;5030346;28;20209;-68
2022/10/14 07:46:43;;;;;;;90.93;32.67;;;;;;;;;;5036691;28;20206;-68
2022/10/14 07:49:18;;;;;;;93.70;33.67;;;;;;;;;;5035768;28;20211;-68
2022/10/14 07:51:43;;;;;;;76.63;30.33;;;;;;;;;;5034904;28;20192;-67
2022/10/14 07:54:19;;;;;;;82.72;32.53;;;;;;;;;;5034202;28;20272;-68
2022/10/14 07:56:47;;;;;;;88.60;33.22;;;;;;;;;;5029288;28;20181;-68
2022/10/14 07:59:13;;;;;;;85.80;32.17;;;;;;;;;;5035056;28;20491;-68
2022/10/14 08:01:38;;;;;;;77.32;31.35;;;;;;;;;;5030118;28;20306;-68
2022/10/14 08:04:04;;;;;;;81.10;31.25;;;;;;;;;;5042322;28;20200;-68
2022/10/14 08:06:29;;;;;;;86.35;33.55;;;;;;;;;;5040480;28;20201;-68
2022/10/14 08:08:55;;;;;;;80.18;31.98;;;;;;;;;;5026488;28;20185;-68
2022/10/14 08:11:25;;;;;;;84.80;32.13;;;;;;;;;;5039541;28;20227;-68
2022/10/14 08:13:52;;;;;;;76.85;32.40;;;;;;;;;;5042191;28;20197;-68
2022/10/14 08:16:20;;;;;;;80.50;31.67;;;;;;;;;;5036148;28;20178;-68
2022/10/14 08:18:46;;;;;;;81.45;31.95;;;;;;;;;;5034691;28;20182;-68
2022/10/14 08:21:12;;;;;;;74.95;31.73;;;;;;;;;;5035060;28;20225;-68
2022/10/14 08:23:38;;;;;;;70.35;32.05;;;;;;;;;;5030648;28;20303;-68
2022/10/14 08:26:03;;;;;;;74.85;31.27;;;;;;;;;;5034631;28;20250;-68
2022/10/14 08:28:29;;;;;;;63.03;28.95;;;;;;;;;;5032622;28;20190;-68
2022/10/14 08:30:54;;;;;;;81.57;32.55;;;;;;;;;;5032637;28;20234;-68
2022/10/14 08:33:20;;;;;;;65.03;28.55;;;;;;;;;;5030948;28;20283;-69
2022/10/14 08:35:45;;;;;;;70.65;29.75;;;;;;;;;;5032799;28;20518;-69
2022/10/14 08:38:11;;;;;;;69.22;29.88;;;;;;;;;;5033018;28;20587;-69
2022/10/14 08:40:47;;;;;;;61.88;29.90;;;;;;;;;;5032770;28;20682;-69
2022/10/14 08:43:23;;;;;;;64.78;29.75;;;;;;;;;;5040058;28;20179;-69
2022/10/14 08:45:57;;;;;;;65.85;28.85;;;;;;;;;;5040713;28;20208;-69
2022/10/14 08:48:27;;;;;;;64.38;28.77;;;;;;;;;;5048192;28;20191;-69
2022/10/14 08:50:59;;;;;;;64.03;29.40;;;;;;;;;;5042058;28;20182;-69
2022/10/14 08:53:34;;;;;;;64.88;29.33;;;;;;;;;;5045868;28;20228;-69
2022/10/14 08:56:01;;;;;;;59.60;28.48;;;;;;;;;;5034230;28;20197;-69
2022/10/14 08:58:33;;;;;;;57.58;27.90;;;;;;;;;;5032179;28;20247;-69
2022/10/14 09:01:03;;;;;;;57.40;27.92;;;;;;;;;;5037538;28;20243;-69
2022/10/14 09:03:33;;;;;;;61.88;30.40;;;;;;;;;;5036462;28;20189;-69
2022/10/14 09:06:02;;;;;;;59.08;30.20;;;;;;;;;;5031913;28;20201;-69
2022/10/14 09:08:36;;;;;;;62.05;30.48;;;;;;;;;;5033499;28;20185;-69
2022/10/14 09:11:02;;;;;;;54.47;29.95;;;;;;;;;;5031565;28;20250;-69
2022/10/14 09:13:34;;;;;;;62.28;30.75;;;;;;;;;;5037393;28;20209;-69
2022/10/14 09:16:05;;;;;;;64.10;31.92;;;;;;;;;;5032573;28;20188;-69
2022/10/14 09:18:38;;;;;;;60.08;30.85;;;;;;;;;;5037618;28;20181;-69
2022/10/14 09:21:25;;;;;;;57.10;30.23;;;;;;;;;;5032878;28;20704;-69
2022/10/14 09:24:19;;;;;;;52.97;28.10;;;;;;;;;;5048490;28;20197;-69
2022/10/14 09:26:47;;;;;;;50.83;28.95;;;;;;;;;;5035424;28;20243;-69
2022/10/14 09:29:21;;;;;;;56.10;31.25;;;;;;;;;;5032312;28;20188;-69
2022/10/14 09:31:47;;;;;;;57.25;31.23;;;;;;;;;;5031194;28;20284;-69
2022/10/14 09:34:17;;;;;;;52.72;30.38;;;;;;;;;;5033773;28;20690;-69
2022/10/14 09:36:43;;;;;;;48.60;28.55;;;;;;;;;;5031006;28;20181;-69
2022/10/14 09:39:10;;;;;;;52.72;30.60;;;;;;;;;;5035369;28;20268;-69
2022/10/14 09:41:37;;;;;;;46.78;29.15;;;;;;;;;;5032212;28;20182;-69
2022/10/14 09:44:24;;;;;;;50.03;28.65;;;;;;;;;;5034188;28;20182;-69
2022/10/14 09:46:56;;;;;;;38.83;25.88;;;;;;;;;;5049679;28;20209;-69
2022/10/14 09:49:32;;;;;;;42.45;27.27;;;;;;;;;;5044273;28;20189;-68
2022/10/14 09:51:57;;;;;;;37.42;26.60;;;;;;;;;;5030697;28;20218;-68
2022/10/14 09:54:26;;;;;;;35.90;25.05;;;;;;;;;;5030400;28;20202;-68
2022/10/14 09:57:07;;;;;;;34.22;25.13;;;;;;;;;;5031284;28;20178;-68
2022/10/14 09:59:37;;;;;;;34.88;25.25;;;;;;;;;;5036160;28;20189;-68
2022/10/14 10:02:04;;;;;;;32.70;24.25;;;;;;;;;;5032936;28;20595;-68
2022/10/14 10:04:46;;;;;;;30.90;23.98;;;;;;;;;;5034412;28;20189;-68
2022/10/14 10:07:25;;;;;;;30.10;23.25;;;;;;;;;;5043648;28;20251;-68
2022/10/14 10:09:59;;;;;;;29.00;23.42;;;;;;;;;;5035281;28;20182;-68
2022/10/14 10:12:30;;;;;;;26.65;21.70;;;;;;;;;;5035621;28;20201;-68
2022/10/14 10:15:04;;;;;;;26.77;21.45;;;;;;;;;;5033225;28;20661;-69
2022/10/14 10:17:31;;;;;;;26.92;21.30;;;;;;;;;;5036463;28;20568;-68
2022/10/14 10:20:32;;;;;;;22.85;19.05;;;;;;;;;;5043900;28;20189;-68
2022/10/14 10:23:27;;;;;;;27.08;19.85;;;;;;;;;;5038543;28;20403;-68
2022/10/14 10:25:53;;;;;;;24.25;20.00;;;;;;;;;;5036807;28;20407;-68
2022/10/14 10:28:30;;;;;;;24.17;19.92;;;;;;;;;;5042038;28;20616;-68
2022/10/14 10:31:06;;;;;;;21.77;19.40;;;;;;;;;;5030376;28;20237;-68
2022/10/14 10:33:43;;;;;;;21.40;18.00;;;;;;;;;;5029165;28;20186;-68
2022/10/14 10:36:19;;;;;;;22.60;19.42;;;;;;;;;;5030567;28;20188;-68
2022/10/14 10:39:01;;;;;;;25.05;19.17;;;;;;;;;;5033437;28;20174;-68
2022/10/14 10:41:42;;;;;;;26.50;19.88;;;;;;;;;;5029659;28;20174;-68
2022/10/14 10:44:21;;;;;;;24.30;19.33;;;;;;;;;;5029010;28;20185;-68
2022/10/14 10:47:09;;;;;;;21.92;18.20;;;;;;;;;;5031101;28;20214;-68
2022/10/14 10:50:17;;;;;;;22.95;18.63;;;;;;;;;;5028602;28;20170;-68
2022/10/14 10:52:52;;;;;;;24.85;18.73;;;;;;;;;;5024860;28;20256;-68
2022/10/14 10:55:34;;;;;;;24.02;19.60;;;;;;;;;;5029231;28;20184;-71
2022/10/14 10:58:35;;;;;;;27.35;20.92;;;;;;;;;;5030165;28;20186;-68
2022/10/14 11:01:09;;;;;;;28.13;21.30;;;;;;;;;;5008907;28;20549;-68
2022/10/14 11:03:56;;;;;;;28.42;22.48;;;;;;;;;;5031261;28;20264;-68
2022/10/14 11:13:00;;;;;;;32.05;24.50;;;;;;;;;;5033073;28;20267;-69
2022/10/14 11:16:11;;;;;;;32.95;25.05;;;;;;;;;;5041061;28;20182;-69
2022/10/14 11:18:49;;;;;;;31.00;24.60;;;;;;;;;;5020030;28;20231;-68
2022/10/14 11:21:33;;;;;;;30.92;24.02;;;;;;;;;;5035597;28;20802;-68
2022/10/14 11:24:05;;;;;;;35.17;25.88;;;;;;;;;;5026362;28;20182;-68
2022/10/14 11:26:40;;;;;;;30.85;25.15;;;;;;;;;;5027063;28;20216;-68
2022/10/14 11:29:49;;;;;;;33.28;25.27;;;;;;;;;;5033836;28;20196;-68
2022/10/14 11:32:36;;;;;;;32.38;24.42;;;;;;;;;;5040008;28;20225;-68
2022/10/14 11:35:40;;;;;;;34.42;24.67;;;;;;;;;;5037595;28;20370;-68
2022/10/14 11:38:33;;;;;;;36.78;25.73;;;;;;;;;;5040404;28;20189;-68
2022/10/14 11:41:22;;;;;;;30.02;24.67;;;;;;;;;;5029097;28;20259;-68
2022/10/14 11:44:06;;;;;;;31.92;25.25;;;;;;;;;;5033939;28;20193;-67
2022/10/14 11:46:41;;;;;;;31.95;23.95;;;;;;;;;;5043876;28;20262;-67
2022/10/14 11:49:36;;;;;;;35.00;24.65;;;;;;;;;;5044355;28;20209;-68
2022/10/14 11:52:07;;;;;;;36.10;25.77;;;;;;;;;;5028736;28;20200;-67
2022/10/14 11:54:36;;;;;;;33.72;24.52;;;;;;;;;;5028066;28;20201;-67
2022/10/14 11:57:13;;;;;;;27.60;23.25;;;;;;;;;;5031654;28;20399;-67
2022/10/14 12:00:00;;;;;;;24.80;21.02;;;;;;;;;;5036395;28;20180;-67
2022/10/14 12:02:51;;;;;;;27.00;23.05;;;;;;;;;;5029748;28;20264;-68
2022/10/14 12:05:40;;;;;;;28.00;20.92;;;;;;;;;;5039452;28;20174;-67
2022/10/14 12:08:08;;;;;;;25.13;20.77;;;;;;;;;;5034838;28;20580;-67
2022/10/14 12:10:40;;;;;;;25.65;21.10;;;;;;;;;;5027354;28;20247;-67
2022/10/14 12:13:13;;;;;;;27.83;21.67;;;;;;;;;;5027931;28;20170;-67
2022/10/14 12:15:45;;;;;;;26.38;22.38;;;;;;;;;;5030145;28;20281;-67
2022/10/14 12:18:11;;;;;;;29.77;23.48;;;;;;;;;;5033236;28;20194;-67
2022/10/14 12:20:45;;;;;;;28.80;23.85;;;;;;;;;;5031191;28;20717;-67
2022/10/14 12:23:27;;;;;;;28.30;23.23;;;;;;;;;;5028581;28;20186;-67
2022/10/14 12:26:11;;;;;;;27.95;23.67;;;;;;;;;;5028230;28;20201;-67
2022/10/14 12:28:38;;;;;;;28.42;23.00;;;;;;;;;;5037559;28;20186;-67
2022/10/14 12:31:39;;;;;;;32.03;26.17;;;;;;;;;;5044653;28;20360;-67
2022/10/14 12:34:10;;;;;;;30.92;24.17;;;;;;;;;;5025200;28;20194;-67
2022/10/14 12:36:37;;;;;;;34.97;26.42;;;;;;;;;;5033500;28;20194;-67
2022/10/14 12:39:17;;;;;;;31.27;26.08;;;;;;;;;;5032232;28;20683;-67
2022/10/14 12:42:01;;;;;;;35.33;27.02;;;;;;;;;;5026964;28;20194;-67
2022/10/14 12:44:43;;;;;;;32.95;25.92;;;;;;;;;;5034265;28;20620;-67
2022/10/14 12:47:20;;;;;;;33.72;25.73;;;;;;;;;;5035104;28;20733;-67
2022/10/14 12:49:52;;;;;;;31.13;25.55;;;;;;;;;;5028646;28;20174;-67
2022/10/14 12:52:25;;;;;;;30.25;26.80;;;;;;;;;;5026680;28;20182;-67
2022/10/14 12:54:51;;;;;;;34.30;27.05;;;;;;;;;;5036446;28;20200;-67
2022/10/14 12:57:29;;;;;;;33.50;25.80;;;;;;;;;;5028985;28;20178;-67
2022/10/14 12:59:58;;;;;;;30.80;25.88;;;;;;;;;;5030156;28;20564;-67
2022/10/14 13:02:43;;;;;;;32.40;26.58;;;;;;;;;;5042811;28;20174;-68
2022/10/14 13:05:32;;;;;;;29.23;23.40;;;;;;;;;;5039875;28;20578;-67
2022/10/14 13:08:19;;;;;;;29.02;23.95;;;;;;;;;;5032889;28;20190;-67
2022/10/14 13:11:07;;;;;;;30.20;25.02;;;;;;;;;;5031828;28;20190;-67
2022/10/14 13:16:24;;;;;;;29.63;24.15;;;;;;;;;;5039052;28;20213;-67
2022/10/14 13:19:02;;;;;;;31.38;23.70;;;;;;;;;;5031431;28;20198;-67
2022/10/14 13:21:33;;;;;;;27.13;23.90;;;;;;;;;;5037361;28;20185;-67
2022/10/14 13:24:25;;;;;;;27.30;23.63;;;;;;;;;;5037202;28;20236;-67
2022/10/14 13:26:53;;;;;;;26.05;22.20;;;;;;;;;;5037079;28;20622;-67
2022/10/14 13:29:18;;;;;;;27.95;24.15;;;;;;;;;;5042970;28;20181;-67
2022/10/14 13:32:14;;;;;;;27.13;24.05;;;;;;;;;;5044568;28;20252;-68
2022/10/14 13:34:42;;;;;;;27.33;23.48;;;;;;;;;;5041247;28;20645;-67
2022/10/14 13:37:17;;;;;;;27.98;23.25;;;;;;;;;;5039438;28;20606;-67
2022/10/14 13:39:42;;;;;;;25.42;22.67;;;;;;;;;;5041674;28;20201;-68
2022/10/14 13:42:22;;;;;;;24.95;22.27;;;;;;;;;;5045505;28;20275;-68
2022/10/14 13:44:48;;;;;;;28.05;22.58;;;;;;;;;;5050925;28;20178;-67
2022/10/14 13:47:15;;;;;;;30.05;23.48;;;;;;;;;;5047578;28;20221;-67
2022/10/14 13:49:42;;;;;;;27.27;22.23;;;;;;;;;;5044234;28;20193;-67
2022/10/14 13:52:16;;;;;;;25.15;22.38;;;;;;;;;;5044238;28;20220;-67
2022/10/14 13:54:41;;;;;;;25.98;22.65;;;;;;;;;;5030315;28;20642;-67
2022/10/14 13:57:13;;;;;;;25.23;22.52;;;;;;;;;;5035631;28;20185;-67
2022/10/14 13:59:40;;;;;;;24.73;20.98;;;;;;;;;;4346484;28;10000811;-67
2022/10/14 14:02:19;;;;;;;21.23;18.58;;;;;;;;;;5044160;28;20184;-67
2022/10/14 14:04:54;;;;;;;21.55;18.98;;;;;;;;;;5027553;28;20189;-67
2022/10/14 14:07:23;;;;;;;20.33;18.27;;;;;;;;;;5029125;28;20236;-68
2022/10/14 14:09:50;;;;;;;19.77;17.67;;;;;;;;;;5033688;28;20590;-68
2022/10/14 14:12:19;;;;;;;20.80;17.58;;;;;;;;;;5035221;28;20190;-69
2022/10/14 14:14:45;;;;;;;22.45;16.98;;;;;;;;;;5030321;28;20661;-69
2022/10/14 14:17:22;;;;;;;16.73;15.02;;;;;;;;;;5027369;28;20189;-69
2022/10/14 14:19:49;;;;;;;15.00;13.50;;;;;;;;;;5041483;28;20644;-70
2022/10/14 14:22:23;;;;;;;13.63;12.23;;;;;;;;;;5037596;28;20926;-70
2022/10/14 14:24:50;;;;;;;14.38;12.00;;;;;;;;;;5030224;28;20802;-69
2022/10/14 14:27:18;;;;;;;12.50;11.30;;;;;;;;;;5038365;28;20247;-69
2022/10/14 14:29:46;;;;;;;12.20;10.70;;;;;;;;;;5034976;28;20193;-70
2022/10/14 14:32:20;;;;;;;11.85;10.65;;;;;;;;;;5039059;28;20229;-68
2022/10/14 14:34:48;;;;;;;10.98;10.00;;;;;;;;;;5027092;28;20193;-70
2022/10/14 14:37:23;;;;;;;10.82;9.82;;;;;;;;;;5034181;28;20641;-69
2022/10/14 14:40:20;;;;;;;10.40;9.30;;;;;;;;;;5030559;28;20189;-69
2022/10/14 14:42:48;;;;;;;9.85;8.80;;;;;;;;;;5037988;28;20197;-69
2022/10/14 14:45:20;;;;;;;10.88;9.88;;;;;;;;;;5027310;28;20193;-69
2022/10/14 14:47:52;;;;;;;10.20;9.07;;;;;;;;;;5029511;28;20209;-69